createdAt,value
2023-01-21T00:00:38.192Z,30.05
2023-01-21T00:03:48.470Z,28.75
2023-01-21T00:06:54.602Z,32.76
2023-01-21T00:10:01.572Z,35.43
2023-01-21T00:13:07.810Z,35.20
2023-01-21T00:16:15.987Z,35.01
2023-01-21T00:19:24.860Z,34.47
2023-01-21T00:22:31.907Z,33.14
2023-01-21T00:25:37.923Z,32.92
2023-01-21T00:28:46.868Z,34.84
2023-01-21T00:31:53.678Z,34.48
2023-01-21T00:35:03.138Z,35.29
2023-01-21T00:38:09.224Z,34.71
2023-01-21T00:41:17.669Z,35.98
2023-01-21T00:44:23.845Z,34.21
2023-01-21T00:47:30.707Z,35.19
2023-01-21T00:50:39.286Z,31.56
2023-01-21T00:53:46.068Z,32.02
2023-01-21T00:56:51.990Z,33.10
2023-01-21T00:59:58.881Z,31.21
2023-01-21T01:03:04.905Z,31.12
2023-01-21T01:06:18.408Z,30.21
2023-01-21T01:09:24.446Z,29.98
2023-01-21T01:12:32.358Z,28.84
2023-01-21T01:15:40.830Z,28.34
2023-01-21T01:18:48.941Z,26.07
2023-01-21T01:21:57.584Z,25.53
2023-01-21T01:25:04.463Z,25.57
2023-01-21T01:28:10.632Z,23.97
2023-01-21T01:31:20.741Z,24.95
2023-01-21T01:34:27.070Z,24.17
2023-01-21T01:37:36.525Z,24.66
2023-01-21T01:40:43.502Z,23.86
2023-01-21T01:43:59.380Z,22.40
2023-01-21T01:47:08.238Z,22.53
2023-01-21T01:50:21.095Z,23.26
2023-01-21T01:53:33.608Z,24.24
2023-01-21T01:56:48.113Z,23.34
2023-01-21T01:59:54.901Z,22.29
2023-01-21T02:03:14.176Z,23.43
2023-01-21T02:06:22.365Z,22.97
2023-01-21T02:09:31.855Z,23.64
2023-01-21T02:12:41.693Z,24.56
2023-01-21T02:16:15.882Z,23.18
2023-01-21T02:20:04.184Z,23.26
2023-01-21T02:23:23.264Z,22.40
2023-01-21T02:27:18.055Z,22.14
2023-01-21T02:31:06.701Z,23.54
2023-01-21T02:34:30.538Z,26.04
2023-01-21T02:37:51.239Z,28.24
2023-01-21T02:41:13.907Z,26.57
2023-01-21T02:44:38.194Z,29.10
2023-01-21T02:48:06.202Z,29.97
2023-01-21T02:51:16.515Z,28.18
2023-01-21T02:54:57.025Z,29.21
2023-01-21T02:58:10.762Z,29.71
2023-01-21T03:01:40.081Z,28.09
2023-01-21T03:05:12.100Z,28.60
2023-01-21T03:08:30.620Z,26.62
2023-01-21T03:11:37.207Z,25.72
2023-01-21T03:15:10.997Z,26.86
2023-01-21T03:18:29.665Z,26.89
2023-01-21T03:21:39.642Z,25.67
2023-01-21T03:24:54.625Z,24.32
2023-01-21T03:28:09.708Z,25.19
2023-01-21T03:31:26.898Z,26.44
2023-01-21T03:34:44.809Z,27.54
2023-01-21T03:37:57.864Z,29.04
2023-01-21T03:41:17.668Z,25.75
2023-01-21T03:44:24.334Z,28.44
2023-01-21T03:47:37.825Z,29.02
2023-01-21T03:50:55.801Z,30.42
2023-01-21T03:54:03.494Z,29.23
2023-01-21T03:57:12.116Z,28.12
2023-01-21T04:00:20.928Z,24.63
2023-01-21T04:03:27.317Z,26.31
2023-01-21T04:06:34.268Z,27.21
2023-01-21T04:09:40.357Z,31.39
2023-01-21T04:12:49.843Z,27.05
2023-01-21T04:15:55.811Z,31.77
2023-01-21T04:19:02.687Z,28.01
2023-01-21T04:22:08.757Z,29.15
2023-01-21T04:25:15.688Z,24.68
2023-01-21T04:28:24.605Z,22.17
2023-01-21T04:31:31.543Z,21.53
2023-01-21T04:34:37.901Z,22.09
2023-01-21T04:37:44.709Z,22.71
2023-01-21T04:40:50.767Z,22.69
2023-01-21T04:44:00.336Z,21.29
2023-01-21T04:47:06.398Z,21.27
2023-01-21T04:50:17.811Z,19.50
2023-01-21T04:53:23.951Z,21.06
2023-01-21T04:56:30.893Z,23.46
2023-01-21T04:59:39.502Z,18.74
2023-01-21T05:02:46.321Z,20.05
2023-01-21T05:05:52.420Z,20.32
2023-01-21T05:08:59.291Z,20.45
2023-01-21T05:12:05.317Z,19.80
2023-01-21T05:15:15.780Z,18.70
2023-01-21T05:18:21.737Z,18.03
2023-01-21T05:21:28.701Z,17.71
2023-01-21T05:24:34.836Z,16.51
2023-01-21T05:27:41.714Z,15.88
2023-01-21T05:30:50.340Z,16.89
2023-01-21T05:33:57.300Z,17.79
2023-01-21T05:37:03.232Z,16.55
2023-01-21T05:40:12.319Z,17.96
2023-01-21T05:43:18.460Z,19.33
2023-01-21T05:46:28.202Z,19.24
2023-01-21T05:49:34.272Z,18.73
2023-01-21T05:52:42.043Z,18.30
2023-01-21T05:55:48.123Z,19.45
2023-01-21T05:58:54.952Z,20.31
2023-01-21T06:02:03.571Z,18.10
2023-01-21T06:05:11.508Z,18.28
2023-01-21T06:08:17.542Z,18.70
2023-01-21T06:11:24.435Z,18.55
2023-01-21T06:14:30.466Z,19.11
2023-01-21T06:17:42.394Z,18.34
2023-01-21T06:20:48.367Z,17.95
2023-01-21T06:23:55.169Z,17.09
2023-01-21T06:27:01.175Z,16.97
2023-01-21T06:30:10.810Z,17.09
2023-01-21T06:33:19.407Z,20.11
2023-01-21T06:36:26.310Z,19.70
2023-01-21T06:39:32.265Z,17.22
2023-01-21T06:42:39.117Z,18.14
2023-01-21T06:45:45.379Z,18.48
2023-01-21T06:48:55.029Z,18.44
2023-01-21T06:52:01.076Z,19.39
2023-01-21T06:55:09.446Z,22.27
2023-01-21T06:58:15.558Z,21.17
2023-01-21T07:01:22.562Z,19.45
2023-01-21T07:04:31.919Z,23.24
2023-01-21T07:07:39.620Z,22.72
2023-01-21T07:10:47.744Z,25.35
2023-01-21T07:13:54.842Z,29.07
2023-01-21T07:17:00.922Z,31.13
2023-01-21T07:20:15.050Z,30.29
2023-01-21T07:23:21.375Z,29.06
2023-01-21T07:26:28.371Z,27.16
2023-01-21T07:29:34.421Z,29.15
2023-01-21T07:32:41.285Z,24.68
2023-01-21T07:35:50.271Z,26.67
2023-01-21T07:38:57.916Z,30.70
2023-01-21T07:42:04.308Z,29.34
2023-01-21T07:45:12.990Z,27.72
2023-01-21T07:48:19.044Z,28.04
2023-01-21T07:51:28.643Z,26.28
2023-01-21T07:54:35.248Z,26.39
2023-01-21T07:57:42.274Z,25.45
2023-01-21T08:00:48.369Z,24.23
2023-01-21T08:03:55.198Z,26.13
2023-01-21T08:07:11.971Z,26.20
2023-01-21T08:10:22.447Z,29.17
2023-01-21T08:13:29.233Z,32.96
2023-01-21T08:16:36.135Z,36.67
2023-01-21T08:19:42.177Z,43.83
2023-01-21T08:22:51.625Z,40.54
2023-01-21T08:25:58.357Z,44.72
2023-01-21T08:29:05.270Z,34.67
2023-01-21T08:32:11.530Z,37.72
2023-01-21T08:35:18.825Z,35.10
2023-01-21T08:38:27.648Z,58.14
2023-01-21T08:41:35.151Z,69.53
2023-01-21T08:44:41.148Z,40.10
2023-01-21T08:47:48.102Z,47.20
2023-01-21T08:50:54.238Z,59.31
2023-01-21T08:54:05.376Z,48.39
2023-01-21T08:57:11.632Z,52.67
2023-01-21T09:00:19.978Z,39.47
2023-01-21T09:03:27.322Z,50.91
2023-01-21T09:06:34.353Z,40.80
2023-01-21T09:09:43.027Z,43.82
2023-01-21T09:12:49.999Z,33.94
2023-01-21T09:15:56.512Z,47.27
2023-01-21T09:19:04.091Z,41.19
2023-01-21T09:22:10.440Z,35.91
2023-01-21T09:25:23.088Z,39.46
2023-01-21T09:28:30.178Z,30.63
2023-01-21T09:31:37.300Z,35.74
2023-01-21T09:34:43.404Z,40.63
2023-01-21T09:37:50.264Z,52.69
2023-01-21T09:41:07.592Z,47.57
2023-01-21T09:44:27.933Z,57.34
2023-01-21T09:47:43.165Z,50.40
2023-01-21T09:50:56.573Z,34.27
2023-01-21T09:54:03.817Z,40.49
2023-01-21T09:57:37.213Z,45.06
2023-01-21T10:00:55.709Z,42.01
2023-01-21T10:04:22.416Z,50.07
2023-01-21T10:07:37.735Z,45.26
2023-01-21T10:10:54.337Z,48.15
2023-01-21T10:14:28.026Z,39.55
2023-01-21T10:17:54.963Z,31.11
2023-01-21T10:21:09.716Z,38.30
2023-01-21T10:24:24.225Z,38.59
2023-01-21T10:27:38.392Z,39.65
2023-01-21T10:30:55.020Z,50.65
2023-01-21T10:34:01.097Z,42.73
2023-01-21T10:37:28.204Z,39.59
2023-01-21T10:40:49.347Z,49.33
2023-01-21T10:44:10.849Z,53.07
2023-01-21T10:47:36.729Z,40.43
2023-01-21T10:50:57.465Z,33.42
2023-01-21T10:54:21.578Z,38.03
2023-01-21T10:57:57.136Z,33.13
2023-01-21T11:01:10.910Z,94.40
2023-01-21T11:04:25.768Z,86.39
2023-01-21T11:07:43.528Z,68.95
2023-01-21T11:10:56.349Z,53.16
2023-01-21T11:14:02.765Z,54.41
2023-01-21T11:17:10.158Z,57.47
2023-01-21T11:20:28.313Z,66.59
2023-01-21T11:23:39.470Z,93.23
2023-01-21T11:26:55.617Z,47.41
2023-01-21T11:30:02.803Z,48.96
2023-01-21T11:33:23.452Z,65.16
2023-01-21T11:36:33.083Z,49.52
2023-01-21T11:39:53.759Z,48.45
2023-01-21T11:43:00.886Z,54.20
2023-01-21T11:46:29.674Z,50.24
2023-01-21T11:49:36.707Z,44.42
2023-01-21T11:52:45.826Z,57.79
2023-01-21T11:55:57.299Z,71.73
2023-01-21T11:59:03.672Z,53.11
2023-01-21T12:02:22.180Z,37.10
2023-01-21T12:05:39.165Z,37.95
2023-01-21T12:08:55.600Z,38.04
2023-01-21T12:12:33.168Z,23.93
2023-01-21T12:16:14.488Z,23.38
2023-01-21T12:19:57.131Z,57.46
2023-01-21T12:23:41.106Z,41.36
2023-01-21T12:27:04.552Z,41.14
2023-01-21T12:30:32.755Z,31.77
2023-01-21T12:33:58.184Z,40.69
2023-01-21T12:37:17.283Z,40.84
2023-01-21T12:40:34.167Z,35.41
2023-01-21T12:43:49.881Z,29.81
2023-01-21T12:47:06.005Z,31.78
2023-01-21T12:50:36.285Z,33.32
2023-01-21T12:53:52.287Z,31.43
2023-01-21T12:57:16.790Z,37.48
2023-01-21T13:00:32.887Z,42.26
2023-01-21T13:03:58.286Z,28.40
2023-01-21T13:07:22.539Z,26.71
2023-01-21T13:10:38.982Z,30.27
2023-01-21T13:13:57.348Z,27.35
2023-01-21T13:17:17.864Z,39.04
2023-01-21T13:20:27.018Z,68.79
2023-01-21T13:23:46.478Z,113.30
2023-01-21T13:27:10.144Z,95.34
2023-01-21T13:30:32.287Z,30.64
2023-01-21T13:33:59.600Z,24.25
2023-01-21T13:37:27.004Z,70.06
2023-01-21T13:40:50.610Z,86.79
2023-01-21T13:44:41.732Z,47.71
2023-01-21T13:48:28.663Z,31.52
2023-01-21T13:52:03.012Z,30.11
2023-01-21T13:55:34.419Z,53.04
2023-01-21T13:58:54.647Z,58.85
2023-01-21T14:02:11.857Z,62.86
2023-01-21T14:05:32.899Z,53.75
2023-01-21T14:08:53.086Z,57.15
2023-01-21T14:12:12.746Z,88.34
2023-01-21T14:16:02.470Z,87.94
2023-01-21T14:19:59.198Z,67.31
2023-01-21T14:23:42.692Z,58.10
2023-01-21T14:27:19.500Z,62.46
2023-01-21T14:30:34.517Z,54.32
2023-01-21T14:33:51.478Z,79.79
2023-01-21T14:37:11.621Z,42.96
2023-01-21T14:40:30.062Z,51.99
2023-01-21T14:43:56.933Z,70.41
2023-01-21T14:47:23.482Z,85.20
2023-01-21T14:50:50.121Z,86.72
2023-01-21T14:54:05.061Z,67.66
2023-01-21T14:57:29.891Z,52.18
2023-01-21T15:00:41.351Z,49.52
2023-01-21T15:03:54.140Z,50.25
2023-01-21T15:07:11.504Z,51.34
2023-01-21T15:10:24.538Z,46.74
2023-01-21T15:13:42.169Z,60.76
2023-01-21T15:16:51.924Z,62.26
2023-01-21T15:20:01.560Z,56.96
2023-01-21T15:23:20.486Z,53.31
2023-01-21T15:26:36.690Z,55.34
2023-01-21T15:29:45.295Z,49.50
2023-01-21T15:32:55.629Z,50.66
2023-01-21T15:36:06.241Z,51.83
2023-01-21T15:39:19.279Z,47.01
2023-01-21T15:42:40.241Z,51.77
2023-01-21T15:46:04.599Z,56.20
2023-01-21T15:49:37.962Z,64.73
2023-01-21T15:53:17.079Z,58.91
2023-01-21T15:56:49.047Z,81.26
2023-01-21T16:00:32.819Z,89.05
2023-01-21T16:03:49.156Z,92.51
2023-01-21T16:07:22.476Z,92.96
2023-01-21T16:10:42.457Z,92.25
2023-01-21T16:14:06.361Z,84.83
2023-01-21T16:17:30.645Z,98.40
2023-01-21T16:20:38.867Z,86.77
2023-01-21T16:23:47.974Z,88.05
2023-01-21T16:26:54.963Z,81.28
2023-01-21T16:30:03.028Z,92.08
2023-01-21T16:33:16.145Z,101.74
2023-01-21T16:36:22.614Z,124.99
2023-01-21T16:39:32.206Z,132.50
2023-01-21T16:42:41.578Z,140.07
2023-01-21T16:45:55.175Z,137.31
2023-01-21T16:49:05.010Z,127.94
2023-01-21T16:52:24.681Z,133.36
2023-01-21T16:55:34.878Z,148.34
2023-01-21T16:58:50.808Z,155.40
2023-01-21T17:01:59.980Z,139.37
2023-01-21T17:05:09.128Z,132.39
2023-01-21T17:08:18.924Z,128.38
2023-01-21T17:11:28.864Z,126.34
2023-01-21T17:14:38.213Z,130.87
2023-01-21T17:17:45.775Z,139.57
2023-01-21T17:21:02.839Z,144.72
2023-01-21T17:24:22.663Z,158.20
2023-01-21T17:27:34.275Z,153.49
2023-01-21T17:30:42.070Z,133.08
2023-01-21T17:33:51.066Z,134.99
2023-01-21T17:36:59.874Z,122.23
2023-01-21T17:40:06.632Z,131.38
2023-01-21T17:43:24.815Z,163.54
2023-01-21T17:46:32.798Z,165.76
2023-01-21T17:49:39.936Z,148.12
2023-01-21T17:52:53.998Z,128.47
2023-01-21T17:56:05.222Z,113.47
2023-01-21T17:59:37.911Z,112.64
2023-01-21T18:02:44.930Z,117.84
2023-01-21T18:05:51.615Z,117.88
2023-01-21T18:09:00.775Z,119.68
2023-01-21T18:12:07.503Z,124.67
2023-01-21T18:15:21.134Z,117.47
2023-01-21T18:18:33.760Z,109.50
2023-01-21T18:21:40.725Z,119.59
2023-01-21T18:24:46.767Z,127.42
2023-01-21T18:27:54.892Z,111.71
2023-01-21T18:31:04.297Z,110.04
2023-01-21T18:34:16.481Z,115.56
2023-01-21T18:37:27.975Z,108.26
2023-01-21T18:40:37.396Z,106.57
2023-01-21T18:43:43.499Z,110.10
2023-01-21T18:46:53.364Z,102.30
2023-01-21T18:50:03.174Z,89.69
2023-01-21T18:53:10.357Z,90.59
2023-01-21T18:56:19.048Z,86.84
2023-01-21T18:59:26.266Z,99.49
2023-01-21T19:02:35.089Z,104.06
2023-01-21T19:05:45.944Z,94.85
2023-01-21T19:08:52.096Z,87.50
2023-01-21T19:11:58.997Z,89.91
2023-01-21T19:15:05.598Z,93.53
2023-01-21T19:18:19.693Z,119.92
2023-01-21T19:21:25.910Z,124.21
2023-01-21T19:24:33.767Z,144.96
2023-01-21T19:27:44.971Z,178.23
2023-01-21T19:30:55.739Z,134.15
2023-01-21T19:34:04.491Z,125.11
2023-01-21T19:37:17.294Z,121.57
2023-01-21T19:40:26.234Z,142.97
2023-01-21T19:43:33.535Z,133.89
2023-01-21T19:46:39.807Z,146.47
2023-01-21T19:49:50.504Z,177.59
2023-01-21T19:52:58.027Z,124.39
2023-01-21T19:56:07.298Z,113.62
2023-01-21T19:59:18.461Z,123.92
2023-01-21T20:02:25.511Z,128.96
2023-01-21T20:05:36.650Z,169.70
2023-01-21T20:08:44.183Z,216.28
2023-01-21T20:11:51.430Z,190.72
2023-01-21T20:14:58.585Z,163.32
2023-01-21T20:18:08.098Z,154.55
2023-01-21T20:21:18.330Z,148.77
2023-01-21T20:24:24.584Z,156.84
2023-01-21T20:27:31.681Z,184.84
2023-01-21T20:30:37.948Z,183.53
2023-01-21T20:33:45.045Z,172.10
2023-01-21T20:36:59.602Z,148.40
2023-01-21T20:40:07.061Z,149.15
2023-01-21T20:43:14.113Z,152.40
2023-01-21T20:46:26.514Z,159.03
2023-01-21T20:49:32.888Z,157.88
2023-01-21T20:52:42.551Z,147.00
2023-01-21T20:55:51.619Z,141.70
2023-01-21T20:58:59.019Z,137.16
2023-01-21T21:02:05.403Z,139.63
2023-01-21T21:05:13.579Z,138.12
2023-01-21T21:08:25.229Z,132.56
2023-01-21T21:11:32.197Z,133.37
2023-01-21T21:14:39.029Z,125.31
2023-01-21T21:17:47.210Z,122.83
2023-01-21T21:20:55.423Z,123.52
2023-01-21T21:24:06.780Z,122.80
2023-01-21T21:27:14.872Z,118.99
2023-01-21T21:30:27.741Z,118.22
2023-01-21T21:33:33.986Z,118.89
2023-01-21T21:36:43.773Z,119.79
2023-01-21T21:39:52.622Z,115.30
2023-01-21T21:43:12.852Z,118.80
2023-01-21T21:46:31.402Z,119.03
2023-01-21T21:49:38.676Z,117.46
2023-01-21T21:52:44.849Z,118.98
2023-01-21T21:55:54.451Z,117.75
2023-01-21T21:59:00.858Z,116.21
2023-01-21T22:02:08.630Z,119.31
2023-01-21T22:05:14.822Z,120.04
2023-01-21T22:08:22.022Z,112.68
2023-01-21T22:11:32.832Z,115.27
2023-01-21T22:14:39.961Z,120.88
2023-01-21T22:17:46.879Z,126.93
2023-01-21T22:20:56.554Z,126.35
2023-01-21T22:24:03.967Z,127.42
2023-01-21T22:27:14.180Z,125.10
2023-01-21T22:30:21.309Z,129.30
2023-01-21T22:33:28.338Z,129.94
2023-01-21T22:36:35.461Z,128.71
2023-01-21T22:39:42.627Z,130.42
2023-01-21T22:42:51.599Z,133.60
2023-01-21T22:46:01.352Z,133.56
2023-01-21T22:49:07.713Z,134.07
2023-01-21T22:52:16.931Z,134.35
2023-01-21T22:55:23.157Z,134.88
2023-01-21T22:58:35.777Z,140.38
2023-01-21T23:01:42.232Z,143.11
2023-01-21T23:05:05.321Z,141.16
2023-01-21T23:08:14.501Z,149.68
2023-01-21T23:11:23.632Z,138.38
2023-01-21T23:14:32.454Z,132.37
2023-01-21T23:17:39.512Z,131.49
2023-01-21T23:20:46.253Z,132.58
2023-01-21T23:23:53.969Z,131.51
2023-01-21T23:27:00.200Z,126.10
2023-01-21T23:30:12.769Z,124.88
2023-01-21T23:33:19.096Z,125.44
2023-01-21T23:36:26.977Z,124.48
2023-01-21T23:39:33.177Z,124.11
2023-01-21T23:42:41.128Z,123.27
2023-01-21T23:45:49.918Z,122.82
2023-01-21T23:48:57.236Z,123.16
2023-01-21T23:52:05.362Z,122.17
2023-01-21T23:55:14.907Z,120.15
2023-01-21T23:58:21.003Z,118.88
